createdAt,value
2022-08-25T00:04:14.646Z,17.97
2022-08-25T00:09:20.406Z,17.95
2022-08-25T00:14:30.254Z,17.90
2022-08-25T00:19:37.251Z,17.83
2022-08-25T00:24:41.036Z,17.67
2022-08-25T00:29:46.895Z,17.60
2022-08-25T00:34:50.665Z,17.56
2022-08-25T00:39:57.422Z,17.54
2022-08-25T00:45:02.819Z,17.41
2022-08-25T00:50:11.656Z,17.46
2022-08-25T00:55:20.015Z,17.50
2022-08-25T01:00:28.727Z,17.46
2022-08-25T01:05:32.559Z,17.37
2022-08-25T01:10:38.036Z,17.34
2022-08-25T01:15:43.134Z,17.32
2022-08-25T01:20:51.106Z,17.30
2022-08-25T01:26:03.219Z,17.25
2022-08-25T01:31:23.831Z,17.22
2022-08-25T01:36:31.227Z,17.25
2022-08-25T01:41:46.416Z,17.20
2022-08-25T01:46:50.256Z,17.07
2022-08-25T01:52:01.792Z,17.03
2022-08-25T01:57:05.868Z,17.03
2022-08-25T02:02:10.555Z,16.99
2022-08-25T02:07:15.550Z,17.00
2022-08-25T02:12:19.066Z,16.97
2022-08-25T02:17:42.503Z,16.82
2022-08-25T02:22:51.141Z,16.92
2022-08-25T02:28:00.207Z,16.86
2022-08-25T02:33:04.086Z,16.81
2022-08-25T02:38:10.680Z,16.82
2022-08-25T02:43:14.094Z,16.82
2022-08-25T02:48:17.602Z,16.90
2022-08-25T02:53:23.512Z,17.02
2022-08-25T02:58:27.910Z,17.06
2022-08-25T03:03:31.411Z,17.22
2022-08-25T03:08:36.663Z,17.40
2022-08-25T03:13:40.391Z,17.45
2022-08-25T03:18:44.474Z,17.73
2022-08-25T03:23:49.658Z,18.01
2022-08-25T03:28:55.788Z,18.30
2022-08-25T03:33:59.861Z,18.60
2022-08-25T03:39:06.254Z,18.92
2022-08-25T03:44:11.338Z,19.01
2022-08-25T03:49:16.915Z,19.13
2022-08-25T03:54:24.393Z,19.42
2022-08-25T03:59:29.741Z,19.61
2022-08-25T04:04:34.224Z,21.32
2022-08-25T04:09:40.146Z,26.72
2022-08-25T04:14:44.268Z,29.63
2022-08-25T04:19:47.727Z,31.06
2022-08-25T04:24:53.248Z,33.55
2022-08-25T04:29:56.949Z,35.10
2022-08-25T04:35:00.597Z,32.54
2022-08-25T04:40:08.071Z,31.55
2022-08-25T04:45:11.868Z,34.44
2022-08-25T04:50:15.459Z,37.28
2022-08-25T04:55:20.396Z,39.59
2022-08-25T05:00:24.264Z,40.74
2022-08-25T05:05:28.142Z,41.99
2022-08-25T05:10:34.027Z,43.62
2022-08-25T05:15:52.694Z,42.98
2022-08-25T05:20:57.365Z,37.95
2022-08-25T05:26:07.772Z,34.47
2022-08-25T05:31:14.575Z,33.37
2022-08-25T05:36:19.851Z,37.13
2022-08-25T05:41:29.015Z,40.29
2022-08-25T05:46:32.436Z,42.01
2022-08-25T05:51:35.973Z,45.03
2022-08-25T05:56:41.390Z,46.52
2022-08-25T06:02:01.488Z,45.37
2022-08-25T06:07:04.945Z,45.75
2022-08-25T06:12:11.463Z,46.61
2022-08-25T06:17:15.090Z,46.65
2022-08-25T06:22:18.784Z,49.41
2022-08-25T06:27:23.613Z,51.64
2022-08-25T06:32:27.115Z,51.44
2022-08-25T06:37:30.820Z,52.15
2022-08-25T06:42:36.443Z,53.50
2022-08-25T06:47:40.025Z,54.49
2022-08-25T06:52:43.511Z,55.25
2022-08-25T06:57:49.146Z,54.31
2022-08-25T07:02:52.686Z,51.36
2022-08-25T07:07:57.162Z,53.22
2022-08-25T07:13:02.438Z,54.29
2022-08-25T07:18:06.544Z,53.55
2022-08-25T07:23:10.098Z,54.85
2022-08-25T07:28:15.739Z,54.55
2022-08-25T07:33:19.209Z,53.70
2022-08-25T07:38:23.090Z,52.83
2022-08-25T07:43:28.396Z,52.37
2022-08-25T07:48:33.291Z,53.55
2022-08-25T07:53:37.535Z,52.82
2022-08-25T07:58:43.523Z,52.80
2022-08-25T08:03:50.849Z,50.70
2022-08-25T08:08:57.828Z,49.07
2022-08-25T08:14:04.724Z,48.60
2022-08-25T08:19:08.142Z,47.25
2022-08-25T08:24:25.063Z,46.91
2022-08-25T08:29:38.255Z,45.07
2022-08-25T08:34:44.328Z,44.94
2022-08-25T08:39:48.340Z,43.61
2022-08-25T08:45:21.838Z,42.42
2022-08-25T08:50:33.584Z,40.69
2022-08-25T08:55:41.981Z,39.85
2022-08-25T09:00:52.212Z,39.86
2022-08-25T09:06:02.082Z,39.25
2022-08-25T09:11:14.873Z,39.17
2022-08-25T09:16:46.764Z,38.38
2022-08-25T09:21:58.739Z,37.38
2022-08-25T09:27:11.716Z,37.63
2022-08-25T09:32:24.130Z,37.06
2022-08-25T09:37:29.542Z,36.97
2022-08-25T09:42:51.231Z,36.79
2022-08-25T09:48:03.741Z,36.81
2022-08-25T09:53:18.604Z,36.16
2022-08-25T09:58:25.540Z,34.98
2022-08-25T10:03:31.606Z,34.94
2022-08-25T10:08:53.064Z,35.15
2022-08-25T10:14:03.814Z,35.52
2022-08-25T10:19:12.894Z,35.67
2022-08-25T10:24:16.658Z,35.22
2022-08-25T10:29:38.549Z,35.39
2022-08-25T10:34:51.739Z,35.33
2022-08-25T10:40:16.610Z,35.02
2022-08-25T10:45:41.697Z,34.47
2022-08-25T10:50:50.838Z,34.22
2022-08-25T10:56:07.588Z,34.20
2022-08-25T11:01:19.778Z,34.33
2022-08-25T11:06:40.322Z,34.26
2022-08-25T11:11:51.293Z,34.38
2022-08-25T11:17:05.052Z,34.56
2022-08-25T11:22:19.291Z,34.37
2022-08-25T11:27:24.717Z,34.34
2022-08-25T11:32:33.657Z,34.22
2022-08-25T11:37:47.183Z,34.08
2022-08-25T11:43:01.941Z,34.18
2022-08-25T11:48:19.308Z,33.69
2022-08-25T11:53:28.953Z,33.67
2022-08-25T11:58:46.766Z,33.83
2022-08-25T12:04:14.920Z,33.96
2022-08-25T12:09:23.606Z,33.85
2022-08-25T12:14:48.088Z,33.79
2022-08-25T12:19:55.794Z,33.80
2022-08-25T12:25:10.046Z,33.80
2022-08-25T12:30:21.107Z,33.81
2022-08-25T12:35:30.653Z,33.92
2022-08-25T12:40:39.394Z,33.43
2022-08-25T12:45:45.493Z,33.56
2022-08-25T12:50:58.328Z,33.09
2022-08-25T12:56:07.217Z,33.30
2022-08-25T13:01:35.279Z,33.32
2022-08-25T13:06:55.774Z,33.25
2022-08-25T13:12:08.924Z,33.04
2022-08-25T13:17:25.856Z,33.18
2022-08-25T13:22:29.462Z,33.24
2022-08-25T13:27:38.555Z,33.25
2022-08-25T13:32:42.396Z,33.19
2022-08-25T13:37:46.162Z,33.18
2022-08-25T13:42:56.151Z,33.03
2022-08-25T13:48:01.695Z,32.76
2022-08-25T13:53:12.584Z,32.49
2022-08-25T13:58:24.332Z,32.46
2022-08-25T14:03:33.437Z,32.28
2022-08-25T14:08:40.524Z,32.06
2022-08-25T14:13:46.391Z,31.89
2022-08-25T14:18:53.483Z,31.85
2022-08-25T14:23:58.865Z,31.65
2022-08-25T14:29:04.865Z,31.63
2022-08-25T14:34:16.828Z,31.56
2022-08-25T14:39:23.541Z,31.41
2022-08-25T14:44:28.419Z,31.36
2022-08-25T14:49:38.452Z,31.15
2022-08-25T14:54:42.147Z,31.12
2022-08-25T14:59:47.882Z,31.02
2022-08-25T15:04:54.146Z,30.93
2022-08-25T15:09:57.706Z,30.70
2022-08-25T15:15:04.155Z,30.55
2022-08-25T15:20:09.621Z,30.35
2022-08-25T15:25:15.525Z,30.17
2022-08-25T15:30:20.516Z,30.09
2022-08-25T15:35:23.983Z,29.93
2022-08-25T15:40:37.964Z,29.79
2022-08-25T15:45:42.973Z,29.62
2022-08-25T15:50:47.451Z,29.42
2022-08-25T15:55:54.078Z,29.21
2022-08-25T16:00:59.235Z,29.00
2022-08-25T16:06:05.422Z,28.77
2022-08-25T16:11:18.778Z,28.54
2022-08-25T16:16:25.851Z,28.24
2022-08-25T16:21:36.191Z,27.97
2022-08-25T16:26:48.495Z,27.66
2022-08-25T16:31:55.151Z,27.36
2022-08-25T16:37:00.343Z,27.08
2022-08-25T16:42:03.849Z,26.78
2022-08-25T16:47:09.417Z,26.57
2022-08-25T16:52:28.427Z,26.31
2022-08-25T16:57:32.163Z,26.05
2022-08-25T17:02:36.822Z,25.85
2022-08-25T17:07:43.334Z,25.58
2022-08-25T17:12:46.814Z,25.35
2022-08-25T17:17:51.727Z,25.23
2022-08-25T17:22:55.191Z,25.03
2022-08-25T17:27:59.099Z,24.89
2022-08-25T17:33:07.563Z,24.73
2022-08-25T17:38:13.052Z,24.54
2022-08-25T17:43:16.455Z,24.40
2022-08-25T17:48:24.194Z,24.27
2022-08-25T17:53:31.003Z,24.13
2022-08-25T17:58:36.490Z,24.05
2022-08-25T18:03:41.490Z,23.97
2022-08-25T18:08:51.645Z,23.85
2022-08-25T18:13:57.417Z,23.74
2022-08-25T18:19:03.085Z,23.65
2022-08-25T18:24:10.646Z,23.53
2022-08-25T18:29:14.462Z,23.43
2022-08-25T18:34:24.139Z,23.39
2022-08-25T18:39:45.262Z,23.12
2022-08-25T18:44:48.686Z,23.08
2022-08-25T18:49:53.822Z,22.93
2022-08-25T18:54:58.207Z,22.77
2022-08-25T19:00:02.823Z,22.74
2022-08-25T19:05:09.701Z,22.64
2022-08-25T19:10:14.633Z,22.51
2022-08-25T19:15:18.333Z,22.39
2022-08-25T19:20:35.054Z,22.26
2022-08-25T19:25:41.728Z,22.13
2022-08-25T19:30:50.470Z,22.11
2022-08-25T19:35:55.974Z,22.03
2022-08-25T19:41:01.830Z,21.92
2022-08-25T19:46:06.210Z,21.80
2022-08-25T19:51:11.797Z,21.33
2022-08-25T19:56:15.433Z,21.25
2022-08-25T20:01:20.933Z,21.30
2022-08-25T20:06:27.759Z,21.30
2022-08-25T20:11:33.589Z,21.27
2022-08-25T20:16:37.378Z,21.22
2022-08-25T20:21:44.534Z,21.20
2022-08-25T20:26:48.072Z,21.12
2022-08-25T20:31:52.943Z,21.07
2022-08-25T20:36:58.483Z,20.97
2022-08-25T20:42:04.129Z,20.95
2022-08-25T20:47:10.820Z,20.96
2022-08-25T20:52:16.335Z,20.90
2022-08-25T20:57:25.486Z,20.82
2022-08-25T21:02:30.674Z,20.80
2022-08-25T21:07:36.182Z,20.77
2022-08-25T21:12:40.103Z,20.67
2022-08-25T21:17:45.653Z,20.58
2022-08-25T21:22:52.207Z,20.51
2022-08-25T21:27:57.023Z,20.33
2022-08-25T21:33:02.176Z,20.24
2022-08-25T21:38:08.039Z,20.23
2022-08-25T21:43:12.068Z,20.18
2022-08-25T21:48:17.001Z,20.17
2022-08-25T21:53:22.156Z,20.17
2022-08-25T21:58:25.825Z,20.10
2022-08-25T22:03:31.361Z,20.05
2022-08-25T22:08:38.916Z,20.02
2022-08-25T22:13:44.256Z,19.92
2022-08-25T22:18:48.971Z,19.80
2022-08-25T22:23:56.108Z,19.78
2022-08-25T22:29:00.672Z,19.71
2022-08-25T22:34:06.271Z,19.63
2022-08-25T22:39:11.687Z,19.62
2022-08-25T22:44:15.751Z,19.51
2022-08-25T22:49:19.458Z,19.40
2022-08-25T22:54:25.759Z,19.43
2022-08-25T22:59:30.318Z,19.36
2022-08-25T23:04:34.001Z,19.35
2022-08-25T23:09:39.526Z,19.14
2022-08-25T23:14:44.365Z,19.00
2022-08-25T23:19:47.988Z,18.98
2022-08-25T23:24:53.810Z,18.73
2022-08-25T23:29:57.477Z,18.73
2022-08-25T23:35:00.900Z,18.61
2022-08-25T23:40:06.896Z,18.68
2022-08-25T23:45:11.314Z,18.41
2022-08-25T23:50:15.474Z,18.40
2022-08-25T23:55:20.390Z,18.26
